Millenium Air

Millenium Air Since 1998



 METAR AND TAF INFORMATION
METAR FOR EGPC
ADDS - METARS form results

(0446 UTC 19 August 2019)
Data provider http://aviationweather.gov/metar/data/
 
METAR text: EGPC 190420Z AUTO 22005KT 9999 SCT020/// BKN026/// 12/11 Q0996
Conditions at: EGPC (WICK , GB) observed 0420 UTC 19 August 2019
Temperature: 12.0°C (54°F)
Dewpoint: 11.0°C (52°F) [RH = 94%]
Pressure (altimeter): 29.41 inches Hg (996.0 mb)
Winds: from the SW (220 degrees) at 6 MPH (5 knots; 2.6 m/s)
Visibility: 6 or more miles (10+ km)
Ceiling: 2600 feet AGL
Clouds: scattered clouds at 2000 feet AGL
broken clouds at 2600 feet AGL
Weather: no significant weather observed at this time

METAR text: EGPC 190350Z AUTO 26008KT 9999 FEW031/// 12/11 Q0996
Conditions at: EGPC (WICK , GB) observed 0350 UTC 19 August 2019
Temperature: 12.0°C (54°F)
Dewpoint: 11.0°C (52°F) [RH = 94%]
Pressure (altimeter): 29.41 inches Hg (996.0 mb)
Winds: from the W (260 degrees) at 9 MPH (8 knots; 4.1 m/s)
Visibility: 6 or more miles (10+ km)
Ceiling: at least 12,000 feet AGL
Clouds: few clouds at 3100 feet AGL
Weather: no significant weather observed at this time

Forecast for: EGPC (WICK , GB)
Text: TAF EGPC 190154Z 1903/1912 26008KT 9999 FEW014
Forecast period: 0300 to 1200 UTC 19 August 2019
Forecast type: FROM: standard forecast or significant change
Winds: from the W (260 degrees) at 9 MPH (8 knots; 4.1 m/s)
Visibility: 6 or more miles 10+ km)
Ceiling: at least 12,000 feet AGL
Clouds: few clouds at 1400 feet AGL
Weather: no significant weather forecast for this period
Text: TEMPO 1903/1912 5000 SHRA BKN014
Forecast period: 0300 to 1200 UTC 19 August 2019
Forecast type: TEMPORARY: The following changes expected for less than half the time period
Visibility: 3 miles (5 km)
Ceiling: 1400 feet AGL
Clouds: broken clouds at 1400 feet AGL
Weather: SHRA  (rain showers)

 AIRPORT MAP

 RUNWAY INFORMATION
Runway 08 Runway length 3399 ft Runway width 148 ft
Runway elevation 99 ft Runway displaced threshold 0 ft Runway heading 76
Runway 26 Runway length 3399 ft Runway width 148 ft
Runway elevation 114 ft Runway displaced threshold 0 ft Runway heading 256
Runway 13 Runway length 5988 ft Runway width 148 ft
Runway elevation 114 ft Runway displaced threshold 820 ft Runway heading 127
Runway 31 Runway length 5988 ft Runway width 148 ft
Runway elevation 114 ft Runway displaced threshold 1017 ft Runway heading 307

 AIRPORT FREQUENCIES
Type AFIS Name INFO Frequency 119.7 MHZ
Type APP Name APP Frequency 119.7 MHZ
Type ATIS Name ATIS Frequency 113.6 MHZ
Type TWR Name TWR Frequency 119.7 MHZ

 AIRPORT NEAR NAVIGATION AIDS
Type NDB Name Wick Frequency 344 KHZ
Type VOR-DME Name Wick Frequency 113600 KHZ